• Join FlightAware (Why Join?)
  • Login
  • US Flag 
10:19PM EST


 

Airport Tracker/Info


-or-


 

Live Flight TrackerFlight Track Log ✈ SWA1464 ✈ 28-Apr-2013 ✈ KCRP - KHOU

Flight Track Log - Related Links

Times and Time Zones

All times are in EDT time to prevent confusion due to time zone crossing. See the SWA1464 flight status page for this flight to view local times or setup timezone preferences in your user account.

Time Position Orientation Groundspeed Altitude Reporting Facility
EDT Latitude Longitude Course Direction KTS MPH feet Rate Location/Type
04:00PM 27.7533 -97.4886 129° Southeast 149 171 1,000  Level Houston Center
04:01PM 27.7361 -97.4650 129° Southeast 174 200 1,900 1,920 Climbing Houston Center
04:02PM 27.7736 -97.4189 47° Northeast 244 281 4,400 2,760 Climbing Houston Center
04:03PM 27.8497 -97.3975 14° North 278 320 8,000 3,780 Climbing Houston Center
04:04PM 27.9456 -97.3622 18° North 297 342 12,300 3,360 Climbing Houston Center
04:05PM 28.0103 -97.3028 39° Northeast 321 369 15,000 2,520 Climbing Houston Center
04:06PM 28.0867 -97.2311 40° Northeast 354 407 17,600 2,460 Climbing Houston Center
04:07PM 28.1692 -97.1517 40° Northeast 387 445 20,200 2,460 Climbing Houston Center
04:08PM 28.2744 -97.0497 40° Northeast 414 476 22,700 1,320 Climbing Houston Center
04:09PM 28.3689 -96.9567 41° Northeast 445 512 23,000 1,020 Climbing Houston Center
04:10PM 28.4614 -96.8675 40° Northeast 439 505 24,900 900 Climbing Houston Center
04:11PM 28.5522 -96.7797 40° Northeast 433 498 24,900  Level Houston Center
04:12PM 28.6450 -96.6881 41° Northeast 441 507 24,900 -540 Level Houston Center
04:13PM 28.7561 -96.5781 41° Northeast 444 511 23,800 -1,440 Descending Houston Center
04:14PM 28.8478 -96.4883 41° Northeast 439 505 22,000 -1,920 Descending Houston Center
04:15PM 28.9364 -96.4003 41° Northeast 425 489 19,900 -2,220 Descending Houston Center
04:17PM 29.0219 -96.3164 41° Northeast 413 475 17,500 -1,920 Descending Houston Center
04:18PM 29.1022 -96.2375 41° Northeast 388 447 16,000 -1,800 Descending Houston Center
04:19PM 29.1972 -96.1411 42° Northeast 341 392 13,700 -1,920 Descending Houston Center
04:20PM 29.2617 -96.0769 41° Northeast 348 400 12,100 -1,140 Descending Houston Center
04:21PM 29.3281 -96.0117 41° Northeast 322 371 11,500 -1,080 Descending Houston Center
04:22PM 29.3981 -95.9172 50° Northeast 295 339 9,800 -1,320 Descending Houston Center
04:23PM 29.4419 -95.8592 49° Northeast 293 337 8,800 -1,260 Descending Houston Center
04:24PM 29.4939 -95.7922 48° Northeast 285 328 7,500 -1,380 Descending Houston Center
04:25PM 29.5431 -95.7253 50° Northeast 275 316 6,000 -720 Descending Houston Center
04:26PM 29.5919 -95.6628 48° Northeast 268 308 6,000  Level Houston Center
04:27PM 29.6342 -95.6061 49° Northeast 242 278 6,000 -540 Level Houston Center
04:28PM 29.6881 -95.5425 46° Northeast 231 266 5,000 -1,140 Descending Houston Center
04:29PM 29.7319 -95.4939 44° Northeast 210 242 3,800 -1,080 Descending Houston Center
04:30PM 29.7506 -95.4347 70° East 214 246 2,800 -900 Descending Houston Center
04:31PM 29.7319 -95.3808 112° Southeast 171 197 2,000 -720 Descending Houston Center
04:32PM 29.6992 -95.3439 136° Southeast 162 186 1,400 -600 Descending Houston Center
04:33PM 29.6742 -95.3139 134° Southeast 158 182 800 -600 Descending Houston Center
04:34PM 29.6467 -95.2808 134° Southeast 144 166 200 -600 Descending Houston Center
04:36PM 29.6454 -95.2789 115° Southeast  Level Estimated